sensor_id;sensor_type;location;lat;lon;timestamp;P1;durP1;ratioP1;P2;durP2;ratioP2
22871;SDS011;11603;44.910;8.630;2022-11-02T00:04:05;31.33;;;20.90;;
22871;SDS011;11603;44.910;8.630;2022-11-02T00:06:31;31.15;;;21.23;;
22871;SDS011;11603;44.910;8.630;2022-11-02T00:08:57;29.00;;;20.77;;
22871;SDS011;11603;44.910;8.630;2022-11-02T00:11:22;23.17;;;18.63;;
22871;SDS011;11603;44.910;8.630;2022-11-02T00:13:48;23.40;;;18.75;;
22871;SDS011;11603;44.910;8.630;2022-11-02T00:16:14;23.27;;;18.50;;
22871;SDS011;11603;44.910;8.630;2022-11-02T00:18:42;24.30;;;18.95;;
22871;SDS011;11603;44.910;8.630;2022-11-02T00:21:11;23.27;;;18.20;;
22871;SDS011;11603;44.910;8.630;2022-11-02T00:23:39;24.05;;;19.27;;
22871;SDS011;11603;44.910;8.630;2022-11-02T00:26:05;23.55;;;19.25;;
22871;SDS011;11603;44.910;8.630;2022-11-02T00:28:31;20.33;;;17.85;;
22871;SDS011;11603;44.910;8.630;2022-11-02T00:30:57;23.20;;;18.92;;
22871;SDS011;11603;44.910;8.630;2022-11-02T00:33:24;20.30;;;16.63;;
22871;SDS011;11603;44.910;8.630;2022-11-02T00:35:51;19.25;;;17.25;;
22871;SDS011;11603;44.910;8.630;2022-11-02T00:38:18;19.02;;;16.95;;
22871;SDS011;11603;44.910;8.630;2022-11-02T00:40:43;20.33;;;16.90;;
22871;SDS011;11603;44.910;8.630;2022-11-02T00:43:09;19.98;;;17.95;;
22871;SDS011;11603;44.910;8.630;2022-11-02T00:45:35;20.20;;;17.95;;
22871;SDS011;11603;44.910;8.630;2022-11-02T00:48:01;44.88;;;18.02;;
22871;SDS011;11603;44.910;8.630;2022-11-02T00:50:28;28.20;;;18.60;;
22871;SDS011;11603;44.910;8.630;2022-11-02T00:52:53;44.58;;;19.75;;
22871;SDS011;11603;44.910;8.630;2022-11-02T00:55:19;21.80;;;18.42;;
22871;SDS011;11603;44.910;8.630;2022-11-02T00:57:45;24.75;;;19.25;;
22871;SDS011;11603;44.910;8.630;2022-11-02T01:00:11;24.20;;;18.77;;
22871;SDS011;11603;44.910;8.630;2022-11-02T01:02:40;26.02;;;19.42;;
22871;SDS011;11603;44.910;8.630;2022-11-02T01:05:06;33.63;;;20.65;;
22871;SDS011;11603;44.910;8.630;2022-11-02T01:07:33;34.85;;;21.25;;
22871;SDS011;11603;44.910;8.630;2022-11-02T01:09:59;29.70;;;20.23;;
22871;SDS011;11603;44.910;8.630;2022-11-02T01:12:25;37.92;;;21.55;;
22871;SDS011;11603;44.910;8.630;2022-11-02T01:14:50;35.63;;;20.60;;
22871;SDS011;11603;44.910;8.630;2022-11-02T01:17:16;47.00;;;21.00;;
22871;SDS011;11603;44.910;8.630;2022-11-02T01:19:43;34.60;;;21.73;;
22871;SDS011;11603;44.910;8.630;2022-11-02T01:22:08;53.13;;;23.42;;
22871;SDS011;11603;44.910;8.630;2022-11-02T01:24:34;100.05;;;24.92;;
22871;SDS011;11603;44.910;8.630;2022-11-02T01:27:01;123.38;;;24.63;;
22871;SDS011;11603;44.910;8.630;2022-11-02T01:29:26;120.45;;;24.27;;
22871;SDS011;11603;44.910;8.630;2022-11-02T01:31:52;94.38;;;23.35;;
22871;SDS011;11603;44.910;8.630;2022-11-02T01:34:20;117.90;;;24.80;;
22871;SDS011;11603;44.910;8.630;2022-11-02T01:36:46;146.35;;;27.48;;
22871;SDS011;11603;44.910;8.630;2022-11-02T01:39:12;239.68;;;31.50;;
22871;SDS011;11603;44.910;8.630;2022-11-02T01:41:38;150.90;;;27.00;;
22871;SDS011;11603;44.910;8.630;2022-11-02T01:44:04;176.10;;;29.20;;
22871;SDS011;11603;44.910;8.630;2022-11-02T01:46:50;98.57;;;29.65;;
22871;SDS011;11603;44.910;8.630;2022-11-02T01:49:19;97.00;;;30.83;;
22871;SDS011;11603;44.910;8.630;2022-11-02T01:51:58;48.20;;;31.20;;
22871;SDS011;11603;44.910;8.630;2022-11-02T01:54:50;93.32;;;31.30;;
22871;SDS011;11603;44.910;8.630;2022-11-02T01:57:23;76.45;;;32.70;;
22871;SDS011;11603;44.910;8.630;2022-11-02T01:59:53;81.70;;;30.15;;
22871;SDS011;11603;44.910;8.630;2022-11-02T02:02:42;84.80;;;29.75;;
22871;SDS011;11603;44.910;8.630;2022-11-02T02:05:17;85.70;;;30.42;;
22871;SDS011;11603;44.910;8.630;2022-11-02T02:07:45;67.65;;;28.55;;
22871;SDS011;11603;44.910;8.630;2022-11-02T02:10:12;69.57;;;29.77;;
22871;SDS011;11603;44.910;8.630;2022-11-02T02:12:38;67.18;;;29.55;;
22871;SDS011;11603;44.910;8.630;2022-11-02T02:15:07;52.33;;;28.23;;
22871;SDS011;11603;44.910;8.630;2022-11-02T02:17:49;63.03;;;29.00;;
22871;SDS011;11603;44.910;8.630;2022-11-02T02:20:38;48.08;;;29.80;;
22871;SDS011;11603;44.910;8.630;2022-11-02T02:29:11;55.05;;;30.40;;
22871;SDS011;11603;44.910;8.630;2022-11-02T02:31:43;49.03;;;29.60;;
22871;SDS011;11603;44.910;8.630;2022-11-02T02:34:18;54.13;;;28.95;;
22871;SDS011;11603;44.910;8.630;2022-11-02T02:39:40;54.08;;;29.80;;
22871;SDS011;11603;44.910;8.630;2022-11-02T02:42:35;55.03;;;29.90;;
22871;SDS011;11603;44.910;8.630;2022-11-02T02:45:16;59.65;;;31.60;;
22871;SDS011;11603;44.910;8.630;2022-11-02T02:47:48;73.65;;;31.95;;
22871;SDS011;11603;44.910;8.630;2022-11-02T02:50:24;69.68;;;32.30;;
22871;SDS011;11603;44.910;8.630;2022-11-02T02:52:53;83.55;;;33.60;;
22871;SDS011;11603;44.910;8.630;2022-11-02T02:55:23;108.65;;;34.30;;
22871;SDS011;11603;44.910;8.630;2022-11-02T02:58:01;103.63;;;36.08;;
22871;SDS011;11603;44.910;8.630;2022-11-02T03:00:29;92.82;;;35.92;;
22871;SDS011;11603;44.910;8.630;2022-11-02T03:02:57;154.77;;;36.13;;
22871;SDS011;11603;44.910;8.630;2022-11-02T03:05:27;90.95;;;33.42;;
22871;SDS011;11603;44.910;8.630;2022-11-02T03:08:04;132.75;;;33.97;;
22871;SDS011;11603;44.910;8.630;2022-11-02T03:10:36;117.68;;;33.15;;
22871;SDS011;11603;44.910;8.630;2022-11-02T03:13:19;197.55;;;36.90;;
22871;SDS011;11603;44.910;8.630;2022-11-02T03:15:48;133.63;;;32.17;;
22871;SDS011;11603;44.910;8.630;2022-11-02T03:18:50;133.10;;;33.10;;
22871;SDS011;11603;44.910;8.630;2022-11-02T03:21:27;181.20;;;34.92;;
22871;SDS011;11603;44.910;8.630;2022-11-02T03:29:13;102.43;;;35.10;;
22871;SDS011;11603;44.910;8.630;2022-11-02T03:31:45;167.38;;;38.00;;
22871;SDS011;11603;44.910;8.630;2022-11-02T03:34:23;97.72;;;38.88;;
22871;SDS011;11603;44.910;8.630;2022-11-02T03:39:57;137.23;;;39.33;;
22871;SDS011;11603;44.910;8.630;2022-11-02T03:42:26;127.43;;;39.08;;
22871;SDS011;11603;44.910;8.630;2022-11-02T03:45:03;106.50;;;40.38;;
22871;SDS011;11603;44.910;8.630;2022-11-02T03:47:35;130.02;;;40.78;;
22871;SDS011;11603;44.910;8.630;2022-11-02T03:50:07;109.68;;;40.15;;
22871;SDS011;11603;44.910;8.630;2022-11-02T03:52:36;115.75;;;41.47;;
22871;SDS011;11603;44.910;8.630;2022-11-02T03:55:07;96.07;;;41.35;;
22871;SDS011;11603;44.910;8.630;2022-11-02T03:57:44;105.97;;;42.65;;
22871;SDS011;11603;44.910;8.630;2022-11-02T04:00:15;148.85;;;42.03;;
22871;SDS011;11603;44.910;8.630;2022-11-02T04:02:50;121.43;;;40.58;;
22871;SDS011;11603;44.910;8.630;2022-11-02T04:05:18;120.93;;;40.25;;
22871;SDS011;11603;44.910;8.630;2022-11-02T04:07:47;195.95;;;40.60;;
22871;SDS011;11603;44.910;8.630;2022-11-02T04:10:52;157.30;;;39.30;;
22871;SDS011;11603;44.910;8.630;2022-11-02T04:13:38;210.75;;;41.78;;
22871;SDS011;11603;44.910;8.630;2022-11-02T04:16:24;189.57;;;40.78;;
22871;SDS011;11603;44.910;8.630;2022-11-02T04:18:50;96.90;;;41.45;;
22871;SDS011;11603;44.910;8.630;2022-11-02T04:21:35;168.38;;;41.83;;
22871;SDS011;11603;44.910;8.630;2022-11-02T04:24:02;98.68;;;40.75;;
22871;SDS011;11603;44.910;8.630;2022-11-02T04:26:47;103.63;;;40.53;;
22871;SDS011;11603;44.910;8.630;2022-11-02T04:29:14;184.38;;;40.25;;
22871;SDS011;11603;44.910;8.630;2022-11-02T04:31:41;215.18;;;41.35;;
22871;SDS011;11603;44.910;8.630;2022-11-02T04:34:07;320.02;;;45.95;;
22871;SDS011;11603;44.910;8.630;2022-11-02T04:36:33;119.78;;;39.20;;
22871;SDS011;11603;44.910;8.630;2022-11-02T04:38:58;143.98;;;40.83;;
22871;SDS011;11603;44.910;8.630;2022-11-02T04:41:27;168.63;;;40.10;;
22871;SDS011;11603;44.910;8.630;2022-11-02T04:44:28;195.85;;;40.83;;
22871;SDS011;11603;44.910;8.630;2022-11-02T04:46:59;118.75;;;38.40;;
22871;SDS011;11603;44.910;8.630;2022-11-02T04:49:28;119.47;;;40.15;;
22871;SDS011;11603;44.910;8.630;2022-11-02T04:51:54;124.97;;;41.28;;
22871;SDS011;11603;44.910;8.630;2022-11-02T04:54:19;115.50;;;41.88;;
22871;SDS011;11603;44.910;8.630;2022-11-02T04:56:49;106.88;;;42.65;;
22871;SDS011;11603;44.910;8.630;2022-11-02T04:59:17;122.05;;;43.42;;
22871;SDS011;11603;44.910;8.630;2022-11-02T05:01:42;109.85;;;44.72;;
22871;SDS011;11603;44.910;8.630;2022-11-02T05:04:08;112.28;;;43.97;;
22871;SDS011;11603;44.910;8.630;2022-11-02T05:06:35;122.97;;;45.42;;
22871;SDS011;11603;44.910;8.630;2022-11-02T05:09:02;130.63;;;45.95;;
22871;SDS011;11603;44.910;8.630;2022-11-02T05:11:28;122.90;;;48.38;;
22871;SDS011;11603;44.910;8.630;2022-11-02T05:13:54;101.63;;;45.67;;
22871;SDS011;11603;44.910;8.630;2022-11-02T05:16:20;121.50;;;47.13;;
22871;SDS011;11603;44.910;8.630;2022-11-02T05:18:48;114.85;;;44.95;;
22871;SDS011;11603;44.910;8.630;2022-11-02T05:21:16;115.93;;;45.25;;
22871;SDS011;11603;44.910;8.630;2022-11-02T05:23:41;99.45;;;44.33;;
22871;SDS011;11603;44.910;8.630;2022-11-02T05:26:09;88.85;;;42.00;;
22871;SDS011;11603;44.910;8.630;2022-11-02T05:28:38;94.75;;;44.35;;
22871;SDS011;11603;44.910;8.630;2022-11-02T05:31:04;87.88;;;40.88;;
22871;SDS011;11603;44.910;8.630;2022-11-02T05:33:32;85.57;;;40.25;;
22871;SDS011;11603;44.910;8.630;2022-11-02T05:36:04;80.00;;;41.08;;
22871;SDS011;11603;44.910;8.630;2022-11-02T05:38:32;80.20;;;40.75;;
22871;SDS011;11603;44.910;8.630;2022-11-02T05:40:59;71.60;;;37.63;;
22871;SDS011;11603;44.910;8.630;2022-11-02T05:43:27;83.32;;;38.20;;
22871;SDS011;11603;44.910;8.630;2022-11-02T05:45:57;79.93;;;39.60;;
22871;SDS011;11603;44.910;8.630;2022-11-02T05:48:24;83.22;;;40.33;;
22871;SDS011;11603;44.910;8.630;2022-11-02T05:50:58;82.13;;;40.50;;
22871;SDS011;11603;44.910;8.630;2022-11-02T05:53:25;79.20;;;39.28;;
22871;SDS011;11603;44.910;8.630;2022-11-02T05:55:51;82.43;;;40.97;;
22871;SDS011;11603;44.910;8.630;2022-11-02T05:58:21;77.82;;;40.85;;
22871;SDS011;11603;44.910;8.630;2022-11-02T06:00:46;79.45;;;40.05;;
22871;SDS011;11603;44.910;8.630;2022-11-02T06:03:12;82.03;;;39.97;;
22871;SDS011;11603;44.910;8.630;2022-11-02T06:05:37;77.78;;;41.03;;
22871;SDS011;11603;44.910;8.630;2022-11-02T06:08:02;81.15;;;40.15;;
22871;SDS011;11603;44.910;8.630;2022-11-02T06:10:28;84.00;;;39.78;;
22871;SDS011;11603;44.910;8.630;2022-11-02T06:12:56;82.95;;;40.45;;
22871;SDS011;11603;44.910;8.630;2022-11-02T06:15:23;80.93;;;39.80;;
22871;SDS011;11603;44.910;8.630;2022-11-02T06:17:48;81.53;;;39.83;;
22871;SDS011;11603;44.910;8.630;2022-11-02T06:20:15;83.22;;;40.45;;
22871;SDS011;11603;44.910;8.630;2022-11-02T06:22:42;85.68;;;40.47;;
22871;SDS011;11603;44.910;8.630;2022-11-02T06:25:07;93.72;;;40.92;;
22871;SDS011;11603;44.910;8.630;2022-11-02T06:27:33;88.70;;;41.65;;
22871;SDS011;11603;44.910;8.630;2022-11-02T06:29:59;107.95;;;43.53;;
22871;SDS011;11603;44.910;8.630;2022-11-02T06:32:25;92.07;;;41.33;;
22871;SDS011;11603;44.910;8.630;2022-11-02T06:34:50;97.35;;;42.75;;
22871;SDS011;11603;44.910;8.630;2022-11-02T06:37:16;113.32;;;41.72;;
22871;SDS011;11603;44.910;8.630;2022-11-02T06:39:41;90.60;;;43.40;;
22871;SDS011;11603;44.910;8.630;2022-11-02T06:42:07;114.85;;;41.58;;
22871;SDS011;11603;44.910;8.630;2022-11-02T06:44:32;96.30;;;41.25;;
22871;SDS011;11603;44.910;8.630;2022-11-02T06:46:58;97.90;;;42.83;;
22871;SDS011;11603;44.910;8.630;2022-11-02T06:49:24;94.20;;;41.92;;
22871;SDS011;11603;44.910;8.630;2022-11-02T06:51:49;92.28;;;42.38;;
22871;SDS011;11603;44.910;8.630;2022-11-02T06:54:15;94.53;;;41.65;;
22871;SDS011;11603;44.910;8.630;2022-11-02T06:56:41;91.75;;;41.47;;
22871;SDS011;11603;44.910;8.630;2022-11-02T06:59:06;108.25;;;42.05;;
22871;SDS011;11603;44.910;8.630;2022-11-02T07:01:32;96.20;;;43.58;;
22871;SDS011;11603;44.910;8.630;2022-11-02T07:03:59;99.07;;;42.88;;
22871;SDS011;11603;44.910;8.630;2022-11-02T07:06:25;100.00;;;44.75;;
22871;SDS011;11603;44.910;8.630;2022-11-02T07:08:52;106.32;;;43.28;;
22871;SDS011;11603;44.910;8.630;2022-11-02T07:11:18;132.27;;;43.25;;
22871;SDS011;11603;44.910;8.630;2022-11-02T07:13:44;107.88;;;43.08;;
22871;SDS011;11603;44.910;8.630;2022-11-02T07:16:09;102.40;;;42.63;;
22871;SDS011;11603;44.910;8.630;2022-11-02T07:18:35;92.30;;;43.42;;
22871;SDS011;11603;44.910;8.630;2022-11-02T07:21:01;99.47;;;42.83;;
22871;SDS011;11603;44.910;8.630;2022-11-02T07:23:26;127.13;;;46.55;;
22871;SDS011;11603;44.910;8.630;2022-11-02T07:25:52;118.70;;;45.70;;
22871;SDS011;11603;44.910;8.630;2022-11-02T07:28:18;112.30;;;44.45;;
22871;SDS011;11603;44.910;8.630;2022-11-02T07:30:43;106.80;;;43.50;;
22871;SDS011;11603;44.910;8.630;2022-11-02T07:33:09;102.78;;;44.42;;
22871;SDS011;11603;44.910;8.630;2022-11-02T07:35:35;115.65;;;45.90;;
22871;SDS011;11603;44.910;8.630;2022-11-02T07:38:01;115.47;;;44.10;;
22871;SDS011;11603;44.910;8.630;2022-11-02T07:40:30;100.32;;;45.15;;
22871;SDS011;11603;44.910;8.630;2022-11-02T07:42:56;121.80;;;42.42;;
22871;SDS011;11603;44.910;8.630;2022-11-02T07:45:39;144.10;;;43.17;;
22871;SDS011;11603;44.910;8.630;2022-11-02T07:48:04;110.45;;;42.70;;
22871;SDS011;11603;44.910;8.630;2022-11-02T07:50:30;111.07;;;45.10;;
22871;SDS011;11603;44.910;8.630;2022-11-02T07:52:56;108.55;;;43.72;;
22871;SDS011;11603;44.910;8.630;2022-11-02T07:55:28;122.00;;;45.58;;
22871;SDS011;11603;44.910;8.630;2022-11-02T07:57:56;140.20;;;44.60;;
22871;SDS011;11603;44.910;8.630;2022-11-02T08:00:24;103.63;;;44.63;;
22871;SDS011;11603;44.910;8.630;2022-11-02T08:02:54;145.77;;;44.05;;
22871;SDS011;11603;44.910;8.630;2022-11-02T08:05:24;174.77;;;45.25;;
22871;SDS011;11603;44.910;8.630;2022-11-02T08:08:00;132.65;;;43.33;;
22871;SDS011;11603;44.910;8.630;2022-11-02T08:10:29;121.20;;;42.17;;
22871;SDS011;11603;44.910;8.630;2022-11-02T08:12:55;99.00;;;43.00;;
22871;SDS011;11603;44.910;8.630;2022-11-02T08:15:21;118.55;;;43.72;;
22871;SDS011;11603;44.910;8.630;2022-11-02T08:17:57;91.25;;;42.90;;
22871;SDS011;11603;44.910;8.630;2022-11-02T08:20:30;114.47;;;43.30;;
22871;SDS011;11603;44.910;8.630;2022-11-02T08:22:56;98.63;;;42.08;;
22871;SDS011;11603;44.910;8.630;2022-11-02T08:25:22;116.80;;;42.83;;
22871;SDS011;11603;44.910;8.630;2022-11-02T08:27:48;97.93;;;41.22;;
22871;SDS011;11603;44.910;8.630;2022-11-02T08:30:13;118.68;;;41.95;;
22871;SDS011;11603;44.910;8.630;2022-11-02T08:32:39;126.40;;;41.22;;
22871;SDS011;11603;44.910;8.630;2022-11-02T08:35:04;113.50;;;39.78;;
22871;SDS011;11603;44.910;8.630;2022-11-02T08:37:30;85.80;;;39.35;;
22871;SDS011;11603;44.910;8.630;2022-11-02T08:39:56;86.88;;;40.20;;
22871;SDS011;11603;44.910;8.630;2022-11-02T08:42:21;91.70;;;40.13;;
22871;SDS011;11603;44.910;8.630;2022-11-02T08:44:46;91.97;;;39.63;;
22871;SDS011;11603;44.910;8.630;2022-11-02T08:47:12;90.97;;;40.50;;
22871;SDS011;11603;44.910;8.630;2022-11-02T08:49:39;84.90;;;36.97;;
22871;SDS011;11603;44.910;8.630;2022-11-02T08:52:04;81.15;;;36.63;;
22871;SDS011;11603;44.910;8.630;2022-11-02T08:54:30;78.85;;;34.63;;
22871;SDS011;11603;44.910;8.630;2022-11-02T08:56:55;76.35;;;33.75;;
22871;SDS011;11603;44.910;8.630;2022-11-02T08:59:20;65.45;;;30.90;;
22871;SDS011;11603;44.910;8.630;2022-11-02T09:01:46;65.40;;;30.70;;
22871;SDS011;11603;44.910;8.630;2022-11-02T09:04:11;61.28;;;31.70;;
22871;SDS011;11603;44.910;8.630;2022-11-02T09:06:37;64.22;;;30.75;;
22871;SDS011;11603;44.910;8.630;2022-11-02T09:09:02;64.18;;;30.25;;
22871;SDS011;11603;44.910;8.630;2022-11-02T09:11:28;58.55;;;30.23;;
22871;SDS011;11603;44.910;8.630;2022-11-02T09:13:54;59.33;;;29.67;;
22871;SDS011;11603;44.910;8.630;2022-11-02T09:16:19;54.97;;;29.52;;
22871;SDS011;11603;44.910;8.630;2022-11-02T09:18:45;54.20;;;27.63;;
22871;SDS011;11603;44.910;8.630;2022-11-02T09:21:10;58.22;;;28.05;;
22871;SDS011;11603;44.910;8.630;2022-11-02T09:23:36;47.10;;;26.02;;
22871;SDS011;11603;44.910;8.630;2022-11-02T09:26:01;46.17;;;24.45;;
22871;SDS011;11603;44.910;8.630;2022-11-02T09:28:27;49.47;;;24.20;;
22871;SDS011;11603;44.910;8.630;2022-11-02T09:30:52;47.47;;;24.30;;
22871;SDS011;11603;44.910;8.630;2022-11-02T09:33:17;40.33;;;22.02;;
22871;SDS011;11603;44.910;8.630;2022-11-02T09:35:44;41.17;;;22.92;;
22871;SDS011;11603;44.910;8.630;2022-11-02T09:38:12;45.17;;;23.35;;
22871;SDS011;11603;44.910;8.630;2022-11-02T09:41:12;44.30;;;23.00;;
22871;SDS011;11603;44.910;8.630;2022-11-02T09:46:42;42.10;;;22.42;;
22871;SDS011;11603;44.910;8.630;2022-11-02T09:49:14;37.72;;;21.60;;
22871;SDS011;11603;44.910;8.630;2022-11-02T09:56:37;33.25;;;19.08;;
22871;SDS011;11603;44.910;8.630;2022-11-02T10:09:53;37.72;;;22.38;;
22871;SDS011;11603;44.910;8.630;2022-11-02T10:12:25;38.67;;;23.35;;
22871;SDS011;11603;44.910;8.630;2022-11-02T10:15:01;39.15;;;22.50;;
22871;SDS011;11603;44.910;8.630;2022-11-02T10:17:33;37.90;;;22.35;;
22871;SDS011;11603;44.910;8.630;2022-11-02T10:20:06;34.13;;;21.35;;
22871;SDS011;11603;44.910;8.630;2022-11-02T10:22:41;31.70;;;19.40;;
22871;SDS011;11603;44.910;8.630;2022-11-02T10:25:10;33.22;;;18.30;;
22871;SDS011;11603;44.910;8.630;2022-11-02T10:27:40;32.30;;;18.67;;
22871;SDS011;11603;44.910;8.630;2022-11-02T10:30:15;32.47;;;19.00;;
22871;SDS011;11603;44.910;8.630;2022-11-02T10:32:42;30.05;;;19.70;;
22871;SDS011;11603;44.910;8.630;2022-11-02T10:35:22;32.58;;;19.00;;
22871;SDS011;11603;44.910;8.630;2022-11-02T10:48:47;28.33;;;18.17;;
22871;SDS011;11603;44.910;8.630;2022-11-02T10:51:36;30.67;;;18.70;;
22871;SDS011;11603;44.910;8.630;2022-11-02T10:54:03;29.52;;;18.45;;
22871;SDS011;11603;44.910;8.630;2022-11-02T10:56:37;26.95;;;17.20;;
22871;SDS011;11603;44.910;8.630;2022-11-02T10:59:18;25.90;;;16.45;;
22871;SDS011;11603;44.910;8.630;2022-11-02T11:04:27;27.52;;;16.63;;
22871;SDS011;11603;44.910;8.630;2022-11-02T11:06:55;26.50;;;16.80;;
22871;SDS011;11603;44.910;8.630;2022-11-02T11:09:25;22.83;;;16.08;;
22871;SDS011;11603;44.910;8.630;2022-11-02T11:12:00;27.08;;;16.65;;
22871;SDS011;11603;44.910;8.630;2022-11-02T11:14:28;27.23;;;16.33;;
22871;SDS011;11603;44.910;8.630;2022-11-02T11:17:00;20.80;;;15.10;;
22871;SDS011;11603;44.910;8.630;2022-11-02T11:19:33;20.25;;;14.50;;
22871;SDS011;11603;44.910;8.630;2022-11-02T11:22:01;27.63;;;16.27;;
22871;SDS011;11603;44.910;8.630;2022-11-02T11:24:31;25.25;;;15.52;;
22871;SDS011;11603;44.910;8.630;2022-11-02T11:26:59;25.77;;;16.58;;
22871;SDS011;11603;44.910;8.630;2022-11-02T11:29:40;24.10;;;17.30;;
22871;SDS011;11603;44.910;8.630;2022-11-02T11:32:18;22.52;;;16.65;;
22871;SDS011;11603;44.910;8.630;2022-11-02T11:35:00;25.25;;;16.45;;
22871;SDS011;11603;44.910;8.630;2022-11-02T11:37:29;25.48;;;16.60;;
22871;SDS011;11603;44.910;8.630;2022-11-02T11:39:56;21.33;;;16.27;;
22871;SDS011;11603;44.910;8.630;2022-11-02T11:42:26;26.08;;;16.92;;
22871;SDS011;11603;44.910;8.630;2022-11-02T11:47:24;19.63;;;15.75;;
22871;SDS011;11603;44.910;8.630;2022-11-02T11:49:51;21.73;;;16.20;;
22871;SDS011;11603;44.910;8.630;2022-11-02T11:52:25;22.08;;;15.80;;
22871;SDS011;11603;44.910;8.630;2022-11-02T11:54:55;23.58;;;16.77;;
22871;SDS011;11603;44.910;8.630;2022-11-02T11:57:23;23.08;;;15.75;;
22871;SDS011;11603;44.910;8.630;2022-11-02T11:59:52;27.40;;;16.83;;
22871;SDS011;11603;44.910;8.630;2022-11-02T12:13:24;23.65;;;16.17;;
22871;SDS011;11603;44.910;8.630;2022-11-02T12:29:10;23.88;;;16.55;;
22871;SDS011;11603;44.910;8.630;2022-11-02T12:31:42;25.55;;;16.25;;
22871;SDS011;11603;44.910;8.630;2022-11-02T12:34:17;24.13;;;16.10;;
22871;SDS011;11603;44.910;8.630;2022-11-02T12:39:22;24.00;;;16.05;;
22871;SDS011;11603;44.910;8.630;2022-11-02T12:53:48;22.90;;;15.45;;
22871;SDS011;11603;44.910;8.630;2022-11-02T12:55:45;21.90;;;15.52;;
22871;SDS011;11603;44.910;8.630;2022-11-02T13:01:01;23.30;;;16.08;;
22871;SDS011;11603;44.910;8.630;2022-11-02T13:03:34;22.70;;;16.17;;
22871;SDS011;11603;44.910;8.630;2022-11-02T13:06:08;23.73;;;15.80;;
22871;SDS011;11603;44.910;8.630;2022-11-02T13:08:44;24.35;;;16.25;;
22871;SDS011;11603;44.910;8.630;2022-11-02T13:11:22;22.40;;;16.08;;
22871;SDS011;11603;44.910;8.630;2022-11-02T13:13:56;23.17;;;17.08;;
22871;SDS011;11603;44.910;8.630;2022-11-02T13:16:46;28.38;;;16.48;;
22871;SDS011;11603;44.910;8.630;2022-11-02T13:22:01;25.75;;;17.05;;
22871;SDS011;11603;44.910;8.630;2022-11-02T13:24:41;22.77;;;15.80;;
22871;SDS011;11603;44.910;8.630;2022-11-02T13:27:21;22.90;;;16.40;;
22871;SDS011;11603;44.910;8.630;2022-11-02T13:29:51;21.48;;;16.30;;
22871;SDS011;11603;44.910;8.630;2022-11-02T13:35:45;25.60;;;14.73;;
22871;SDS011;11603;44.910;8.630;2022-11-02T13:40:42;24.52;;;15.75;;
22871;SDS011;11603;44.910;8.630;2022-11-02T13:46:01;24.38;;;16.40;;
22871;SDS011;11603;44.910;8.630;2022-11-02T13:48:34;21.58;;;16.05;;
22871;SDS011;11603;44.910;8.630;2022-11-02T13:51:20;23.90;;;16.13;;
22871;SDS011;11603;44.910;8.630;2022-11-02T13:53:54;26.02;;;15.60;;
22871;SDS011;11603;44.910;8.630;2022-11-02T13:56:28;25.35;;;15.85;;
22871;SDS011;11603;44.910;8.630;2022-11-02T13:58:59;26.90;;;16.48;;
22871;SDS011;11603;44.910;8.630;2022-11-02T14:01:28;26.15;;;15.35;;
22871;SDS011;11603;44.910;8.630;2022-11-02T14:04:04;21.80;;;16.08;;
22871;SDS011;11603;44.910;8.630;2022-11-02T14:06:32;25.45;;;16.38;;
22871;SDS011;11603;44.910;8.630;2022-11-02T14:09:20;28.95;;;17.17;;
22871;SDS011;11603;44.910;8.630;2022-11-02T14:12:11;24.52;;;16.77;;
22871;SDS011;11603;44.910;8.630;2022-11-02T14:14:37;21.40;;;15.23;;
22871;SDS011;11603;44.910;8.630;2022-11-02T14:17:09;23.70;;;16.02;;
22871;SDS011;11603;44.910;8.630;2022-11-02T14:22:16;22.80;;;15.07;;
22871;SDS011;11603;44.910;8.630;2022-11-02T14:34:46;23.13;;;14.98;;
22871;SDS011;11603;44.910;8.630;2022-11-02T14:48:10;24.88;;;15.77;;
22871;SDS011;11603;44.910;8.630;2022-11-02T14:50:40;23.48;;;15.07;;
22871;SDS011;11603;44.910;8.630;2022-11-02T14:53:08;22.40;;;14.80;;
22871;SDS011;11603;44.910;8.630;2022-11-02T14:55:50;24.52;;;15.23;;
22871;SDS011;11603;44.910;8.630;2022-11-02T14:58:18;27.45;;;15.85;;
22871;SDS011;11603;44.910;8.630;2022-11-02T15:08:53;31.60;;;17.20;;
22871;SDS011;11603;44.910;8.630;2022-11-02T15:16:59;26.90;;;17.35;;
22871;SDS011;11603;44.910;8.630;2022-11-02T15:19:34;25.10;;;17.73;;
22871;SDS011;11603;44.910;8.630;2022-11-02T15:28:11;28.85;;;17.92;;
22871;SDS011;11603;44.910;8.630;2022-11-02T15:30:41;26.83;;;17.52;;
22871;SDS011;11603;44.910;8.630;2022-11-02T15:33:15;28.50;;;18.58;;
22871;SDS011;11603;44.910;8.630;2022-11-02T15:35:48;26.15;;;18.15;;
22871;SDS011;11603;44.910;8.630;2022-11-02T15:38:18;31.95;;;19.23;;
22871;SDS011;11603;44.910;8.630;2022-11-02T16:02:34;28.98;;;18.42;;
22871;SDS011;11603;44.910;8.630;2022-11-02T16:05:02;26.88;;;17.17;;
22871;SDS011;11603;44.910;8.630;2022-11-02T16:07:30;27.92;;;17.63;;
22871;SDS011;11603;44.910;8.630;2022-11-02T16:10:09;25.80;;;17.33;;
22871;SDS011;11603;44.910;8.630;2022-11-02T16:12:36;22.77;;;17.55;;
22871;SDS011;11603;44.910;8.630;2022-11-02T16:15:09;28.67;;;17.95;;
22871;SDS011;11603;44.910;8.630;2022-11-02T16:17:37;28.05;;;18.70;;
22871;SDS011;11603;44.910;8.630;2022-11-02T16:20:17;27.52;;;18.20;;
22871;SDS011;11603;44.910;8.630;2022-11-02T16:22:58;27.83;;;19.48;;
22871;SDS011;11603;44.910;8.630;2022-11-02T16:28:09;30.17;;;20.08;;
22871;SDS011;11603;44.910;8.630;2022-11-02T16:30:40;32.78;;;20.63;;
22871;SDS011;11603;44.910;8.630;2022-11-02T16:33:07;29.77;;;19.75;;
22871;SDS011;11603;44.910;8.630;2022-11-02T16:35:35;30.45;;;18.48;;
22871;SDS011;11603;44.910;8.630;2022-11-02T16:38:01;31.52;;;20.00;;
22871;SDS011;11603;44.910;8.630;2022-11-02T16:40:27;28.00;;;19.30;;
22871;SDS011;11603;44.910;8.630;2022-11-02T16:42:53;32.15;;;20.33;;
22871;SDS011;11603;44.910;8.630;2022-11-02T16:45:38;31.25;;;20.98;;
22871;SDS011;11603;44.910;8.630;2022-11-02T16:48:24;27.58;;;19.58;;
22871;SDS011;11603;44.910;8.630;2022-11-02T16:51:00;37.00;;;21.63;;
22871;SDS011;11603;44.910;8.630;2022-11-02T16:53:35;34.65;;;20.80;;
22871;SDS011;11603;44.910;8.630;2022-11-02T17:01:34;32.38;;;20.85;;
22871;SDS011;11603;44.910;8.630;2022-11-02T17:06:54;30.63;;;20.30;;
22871;SDS011;11603;44.910;8.630;2022-11-02T17:09:29;33.15;;;20.85;;
22871;SDS011;11603;44.910;8.630;2022-11-02T17:11:58;34.65;;;22.70;;
22871;SDS011;11603;44.910;8.630;2022-11-02T17:14:28;32.15;;;21.70;;
22871;SDS011;11603;44.910;8.630;2022-11-02T17:22:10;34.95;;;23.40;;
22871;SDS011;11603;44.910;8.630;2022-11-02T17:25:09;36.03;;;23.65;;
22871;SDS011;11603;44.910;8.630;2022-11-02T17:28:25;33.88;;;22.75;;
22871;SDS011;11603;44.910;8.630;2022-11-02T17:34:00;33.63;;;22.40;;
22871;SDS011;11603;44.910;8.630;2022-11-02T17:36:32;36.75;;;22.85;;
22871;SDS011;11603;44.910;8.630;2022-11-02T17:39:07;34.55;;;22.45;;
22871;SDS011;11603;44.910;8.630;2022-11-02T17:41:36;34.35;;;22.30;;
22871;SDS011;11603;44.910;8.630;2022-11-02T17:44:20;34.20;;;22.65;;
22871;SDS011;11603;44.910;8.630;2022-11-02T17:46:45;36.25;;;24.45;;
22871;SDS011;11603;44.910;8.630;2022-11-02T17:49:10;36.58;;;22.77;;